sensor_id;sensor_type;location;lat;lon;timestamp;pressure;altitude;pressure_sealevel;temperature
37452;BMP280;23314;51.114;6.900;2022-11-15T00:01:37;100651.09;;;12.63
37452;BMP280;23314;51.114;6.900;2022-11-15T00:04:04;100652.53;;;12.68
37452;BMP280;23314;51.114;6.900;2022-11-15T00:06:30;100651.69;;;12.71
37452;BMP280;23314;51.114;6.900;2022-11-15T00:08:58;100649.34;;;12.73
37452;BMP280;23314;51.114;6.900;2022-11-15T00:11:23;100647.03;;;12.75
37452;BMP280;23314;51.114;6.900;2022-11-15T00:13:49;100653.88;;;12.76
37452;BMP280;23314;51.114;6.900;2022-11-15T00:16:14;100657.97;;;12.81
37452;BMP280;23314;51.114;6.900;2022-11-15T00:18:40;100652.97;;;12.83
37452;BMP280;23314;51.114;6.900;2022-11-15T00:21:08;100651.38;;;12.85
37452;BMP280;23314;51.114;6.900;2022-11-15T00:23:34;100651.69;;;12.87
37452;BMP280;23314;51.114;6.900;2022-11-15T00:25:59;100653.97;;;12.89
37452;BMP280;23314;51.114;6.900;2022-11-15T00:28:25;100648.91;;;12.91
37452;BMP280;23314;51.114;6.900;2022-11-15T00:30:50;100652.69;;;12.94
37452;BMP280;23314;51.114;6.900;2022-11-15T00:33:16;100656.47;;;12.96
37452;BMP280;23314;51.114;6.900;2022-11-15T00:35:41;100655.59;;;12.99
37452;BMP280;23314;51.114;6.900;2022-11-15T00:38:06;100650.91;;;13.03
37452;BMP280;23314;51.114;6.900;2022-11-15T00:40:32;100649.31;;;13.06
37452;BMP280;23314;51.114;6.900;2022-11-15T00:42:57;100643.53;;;13.08
37452;BMP280;23314;51.114;6.900;2022-11-15T00:45:23;100649.97;;;13.10
37452;BMP280;23314;51.114;6.900;2022-11-15T00:47:49;100650.28;;;13.12
37452;BMP280;23314;51.114;6.900;2022-11-15T00:50:14;100647.22;;;13.14
37452;BMP280;23314;51.114;6.900;2022-11-15T00:52:40;100644.44;;;13.17
37452;BMP280;23314;51.114;6.900;2022-11-15T00:55:05;100644.75;;;13.19
37452;BMP280;23314;51.114;6.900;2022-11-15T00:57:30;100645.09;;;13.21
37452;BMP280;23314;51.114;6.900;2022-11-15T00:59:56;100640.09;;;13.24
37452;BMP280;23314;51.114;6.900;2022-11-15T01:02:21;100644.59;;;13.27
37452;BMP280;23314;51.114;6.900;2022-11-15T01:04:47;100646.09;;;13.28
37452;BMP280;23314;51.114;6.900;2022-11-15T01:07:13;100639.56;;;13.29
37452;BMP280;23314;51.114;6.900;2022-11-15T01:09:38;100631.09;;;13.30
37452;BMP280;23314;51.114;6.900;2022-11-15T01:12:04;100636.03;;;13.32
37452;BMP280;23314;51.114;6.900;2022-11-15T01:14:29;100633.69;;;13.34
37452;BMP280;23314;51.114;6.900;2022-11-15T01:16:54;100631.75;;;13.34
37452;BMP280;23314;51.114;6.900;2022-11-15T01:19:20;100623.72;;;13.34
37452;BMP280;23314;51.114;6.900;2022-11-15T01:21:48;100619.09;;;13.35
37452;BMP280;23314;51.114;6.900;2022-11-15T01:24:14;100635.94;;;13.35
37452;BMP280;23314;51.114;6.900;2022-11-15T01:26:39;100630.16;;;13.37
37452;BMP280;23314;51.114;6.900;2022-11-15T01:29:04;100628.97;;;13.38
37452;BMP280;23314;51.114;6.900;2022-11-15T01:31:30;100626.72;;;13.36
37452;BMP280;23314;51.114;6.900;2022-11-15T01:33:55;100627.03;;;13.38
37452;BMP280;23314;51.114;6.900;2022-11-15T01:36:22;100623.63;;;13.38
37452;BMP280;23314;51.114;6.900;2022-11-15T01:38:53;100629.72;;;13.38
37452;BMP280;23314;51.114;6.900;2022-11-15T01:41:22;100616.75;;;13.37
37452;BMP280;23314;51.114;6.900;2022-11-15T01:43:53;100620.94;;;13.38
37452;BMP280;23314;51.114;6.900;2022-11-15T01:46:22;100622.41;;;13.39
37452;BMP280;23314;51.114;6.900;2022-11-15T01:48:50;100632.41;;;13.38
37452;BMP280;23314;51.114;6.900;2022-11-15T01:51:18;100622.03;;;13.41
37452;BMP280;23314;51.114;6.900;2022-11-15T01:53:47;100628.88;;;13.42
37452;BMP280;23314;51.114;6.900;2022-11-15T01:56:17;100613.16;;;13.44
37452;BMP280;23314;51.114;6.900;2022-11-15T01:58:44;100620.72;;;13.45
37452;BMP280;23314;51.114;6.900;2022-11-15T02:01:12;100608.09;;;13.46
37452;BMP280;23314;51.114;6.900;2022-11-15T02:06:16;100603.81;;;13.48
37452;BMP280;23314;51.114;6.900;2022-11-15T02:08:42;100602.22;;;13.51
37452;BMP280;23314;51.114;6.900;2022-11-15T02:11:09;100597.59;;;13.51
37452;BMP280;23314;51.114;6.900;2022-11-15T02:13:35;100589.13;;;13.53
37452;BMP280;23314;51.114;6.900;2022-11-15T02:19:01;100574.56;;;13.54
37452;BMP280;23314;51.114;6.900;2022-11-15T02:21:29;100568.47;;;13.53
37452;BMP280;23314;51.114;6.900;2022-11-15T02:32:34;100567.28;;;13.54
37452;BMP280;23314;51.114;6.900;2022-11-15T02:37:47;100570.28;;;13.57
37452;BMP280;23314;51.114;6.900;2022-11-15T02:42:53;100578.22;;;13.60
37452;BMP280;23314;51.114;6.900;2022-11-15T02:45:44;100578.94;;;13.61
37452;BMP280;23314;51.114;6.900;2022-11-15T02:48:11;100568.56;;;13.63
37452;BMP280;23314;51.114;6.900;2022-11-15T02:50:37;100576.19;;;13.64
37452;BMP280;23314;51.114;6.900;2022-11-15T02:53:02;100567.69;;;13.66
37452;BMP280;23314;51.114;6.900;2022-11-15T02:55:33;100569.53;;;13.69
37452;BMP280;23314;51.114;6.900;2022-11-15T03:00:46;100567.91;;;13.71
37452;BMP280;23314;51.114;6.900;2022-11-15T03:06:19;100566.34;;;13.74
37452;BMP280;23314;51.114;6.900;2022-11-15T03:09:01;100567.84;;;13.75
37452;BMP280;23314;51.114;6.900;2022-11-15T03:11:29;100566.19;;;13.78
37452;BMP280;23314;51.114;6.900;2022-11-15T03:14:19;100557.75;;;13.79
37452;BMP280;23314;51.114;6.900;2022-11-15T03:17:23;100558.50;;;13.80
37452;BMP280;23314;51.114;6.900;2022-11-15T03:19:50;100557.75;;;13.79
37452;BMP280;23314;51.114;6.900;2022-11-15T03:22:24;100556.16;;;13.82
37452;BMP280;23314;51.114;6.900;2022-11-15T03:24:58;100562.56;;;13.84
37452;BMP280;23314;51.114;6.900;2022-11-15T03:27:30;100560.63;;;13.85
37452;BMP280;23314;51.114;6.900;2022-11-15T03:30:00;100554.84;;;13.86
37452;BMP280;23314;51.114;6.900;2022-11-15T03:32:30;100563.66;;;13.87
37452;BMP280;23314;51.114;6.900;2022-11-15T03:35:09;100549.81;;;13.89
37452;BMP280;23314;51.114;6.900;2022-11-15T03:38:07;100543.72;;;13.88
37452;BMP280;23314;51.114;6.900;2022-11-15T03:40:48;100547.13;;;13.89
37452;BMP280;23314;51.114;6.900;2022-11-15T03:43:39;100544.44;;;13.89
37452;BMP280;23314;51.114;6.900;2022-11-15T03:46:13;100540.59;;;13.90
37452;BMP280;23314;51.114;6.900;2022-11-15T03:48:43;100533.72;;;13.89
37452;BMP280;23314;51.114;6.900;2022-11-15T03:51:11;100537.16;;;13.89
37452;BMP280;23314;51.114;6.900;2022-11-15T03:53:36;100549.41;;;13.90
37452;BMP280;23314;51.114;6.900;2022-11-15T03:56:02;100541.66;;;13.92
37452;BMP280;23314;51.114;6.900;2022-11-15T03:58:27;100539.72;;;13.93
37452;BMP280;23314;51.114;6.900;2022-11-15T04:00:52;100538.53;;;13.94
37452;BMP280;23314;51.114;6.900;2022-11-15T04:03:18;100539.28;;;13.94
37452;BMP280;23314;51.114;6.900;2022-11-15T04:05:43;100541.56;;;13.96
37452;BMP280;23314;51.114;6.900;2022-11-15T04:08:08;100542.28;;;13.96
37452;BMP280;23314;51.114;6.900;2022-11-15T04:10:34;100534.25;;;13.96
37452;BMP280;23314;51.114;6.900;2022-11-15T04:12:59;100528.16;;;13.96
37452;BMP280;23314;51.114;6.900;2022-11-15T04:15:26;100531.56;;;13.96
37452;BMP280;23314;51.114;6.900;2022-11-15T04:17:55;100529.63;;;13.97
37452;BMP280;23314;51.114;6.900;2022-11-15T04:20:23;100532.75;;;13.95
37452;BMP280;23314;51.114;6.900;2022-11-15T04:23:11;100525.13;;;13.94
37452;BMP280;23314;51.114;6.900;2022-11-15T04:25:57;100532.09;;;13.91
37452;BMP280;23314;51.114;6.900;2022-11-15T04:28:23;100530.63;;;13.90
37452;BMP280;23314;51.114;6.900;2022-11-15T04:30:49;100520.31;;;13.89
37452;BMP280;23314;51.114;6.900;2022-11-15T04:33:14;100533.31;;;13.90
37452;BMP280;23314;51.114;6.900;2022-11-15T04:35:41;100520.63;;;13.91
37452;BMP280;23314;51.114;6.900;2022-11-15T04:38:08;100511.09;;;13.90
37452;BMP280;23314;51.114;6.900;2022-11-15T04:40:35;100514.22;;;13.88
37452;BMP280;23314;51.114;6.900;2022-11-15T04:43:00;100516.13;;;13.87
37452;BMP280;23314;51.114;6.900;2022-11-15T04:45:26;100524.50;;;13.90
37452;BMP280;23314;51.114;6.900;2022-11-15T04:47:51;100518.41;;;13.89
37452;BMP280;23314;51.114;6.900;2022-11-15T04:50:17;100523.28;;;13.91
37452;BMP280;23314;51.114;6.900;2022-11-15T04:52:46;100518.69;;;13.91
37452;BMP280;23314;51.114;6.900;2022-11-15T04:55:14;100520.22;;;13.92
37452;BMP280;23314;51.114;6.900;2022-11-15T04:57:39;100515.91;;;13.95
37452;BMP280;23314;51.114;6.900;2022-11-15T05:00:07;100523.53;;;13.96
37452;BMP280;23314;51.114;6.900;2022-11-15T05:02:33;100519.22;;;13.99
37452;BMP280;23314;51.114;6.900;2022-11-15T05:05:17;100526.84;;;14.00
37452;BMP280;23314;51.114;6.900;2022-11-15T05:07:42;100523.75;;;14.02
37452;BMP280;23314;51.114;6.900;2022-11-15T05:10:08;100523.28;;;14.03
37452;BMP280;23314;51.114;6.900;2022-11-15T05:12:33;100520.94;;;14.06
37452;BMP280;23314;51.114;6.900;2022-11-15T05:14:58;100517.81;;;14.07
37452;BMP280;23314;51.114;6.900;2022-11-15T05:17:24;100517.81;;;14.07
37452;BMP280;23314;51.114;6.900;2022-11-15T05:19:49;100530.03;;;14.08
37452;BMP280;23314;51.114;6.900;2022-11-15T05:22:17;100524.25;;;14.10
37452;BMP280;23314;51.114;6.900;2022-11-15T05:24:42;100519.63;;;14.10
37452;BMP280;23314;51.114;6.900;2022-11-15T05:27:07;100514.25;;;14.10
37452;BMP280;23314;51.114;6.900;2022-11-15T05:29:33;100513.84;;;14.12
37452;BMP280;23314;51.114;6.900;2022-11-15T05:31:59;100511.16;;;14.12
37452;BMP280;23314;51.114;6.900;2022-11-15T05:34:24;100516.53;;;14.12
37452;BMP280;23314;51.114;6.900;2022-11-15T05:36:50;100515.34;;;14.13
37452;BMP280;23314;51.114;6.900;2022-11-15T05:39:18;100518.34;;;14.15
37452;BMP280;23314;51.114;6.900;2022-11-15T05:41:47;100513.72;;;14.15
37452;BMP280;23314;51.114;6.900;2022-11-15T05:44:23;100514.50;;;14.16
37452;BMP280;23314;51.114;6.900;2022-11-15T05:46:51;100520.56;;;14.16
37452;BMP280;23314;51.114;6.900;2022-11-15T05:49:21;100519.41;;;14.17
37452;BMP280;23314;51.114;6.900;2022-11-15T05:51:49;100514.81;;;14.18
37452;BMP280;23314;51.114;6.900;2022-11-15T05:54:15;100521.97;;;14.21
37452;BMP280;23314;51.114;6.900;2022-11-15T05:56:41;100515.88;;;14.20
37452;BMP280;23314;51.114;6.900;2022-11-15T05:59:07;100518.84;;;14.23
37452;BMP280;23314;51.114;6.900;2022-11-15T06:01:33;100518.41;;;14.24
37452;BMP280;23314;51.114;6.900;2022-11-15T06:03:58;100526.47;;;14.24
37452;BMP280;23314;51.114;6.900;2022-11-15T06:06:24;100526.47;;;14.24
37452;BMP280;23314;51.114;6.900;2022-11-15T06:08:49;100532.59;;;14.25
37452;BMP280;23314;51.114;6.900;2022-11-15T06:11:14;100524.53;;;14.25
37452;BMP280;23314;51.114;6.900;2022-11-15T06:13:40;100532.16;;;14.26
37452;BMP280;23314;51.114;6.900;2022-11-15T06:16:05;100527.97;;;14.25
37452;BMP280;23314;51.114;6.900;2022-11-15T06:18:34;100528.72;;;14.26
37452;BMP280;23314;51.114;6.900;2022-11-15T06:21:00;100532.16;;;14.26
37452;BMP280;23314;51.114;6.900;2022-11-15T06:23:26;100533.34;;;14.25
37452;BMP280;23314;51.114;6.900;2022-11-15T06:25:52;100544.06;;;14.25
37452;BMP280;23314;51.114;6.900;2022-11-15T06:28:17;100547.94;;;14.24
37452;BMP280;23314;51.114;6.900;2022-11-15T06:30:42;100554.44;;;14.36
37452;BMP280;23314;51.114;6.900;2022-11-15T06:33:08;100544.03;;;14.38
37452;BMP280;23314;51.114;6.900;2022-11-15T06:35:34;100549.03;;;14.27
37452;BMP280;23314;51.114;6.900;2022-11-15T06:38:08;100549.78;;;14.14
37452;BMP280;23314;51.114;6.900;2022-11-15T06:40:35;100552.06;;;14.03
37452;BMP280;23314;51.114;6.900;2022-11-15T06:43:01;100553.66;;;13.87
37452;BMP280;23314;51.114;6.900;2022-11-15T06:45:27;100550.97;;;13.75
37452;BMP280;23314;51.114;6.900;2022-11-15T06:47:52;100557.84;;;13.63
37452;BMP280;23314;51.114;6.900;2022-11-15T06:50:18;100565.22;;;13.59
37452;BMP280;23314;51.114;6.900;2022-11-15T06:52:43;100567.16;;;13.58
37452;BMP280;23314;51.114;6.900;2022-11-15T06:55:09;100570.91;;;13.61
37452;BMP280;23314;51.114;6.900;2022-11-15T06:57:35;100570.06;;;13.64
37452;BMP280;23314;51.114;6.900;2022-11-15T07:00:01;100568.88;;;13.65
37452;BMP280;23314;51.114;6.900;2022-11-15T07:02:27;100565.78;;;13.66
37452;BMP280;23314;51.114;6.900;2022-11-15T07:04:52;100564.63;;;13.67
37452;BMP280;23314;51.114;6.900;2022-11-15T07:07:18;100572.22;;;13.69
37452;BMP280;23314;51.114;6.900;2022-11-15T07:09:43;100580.28;;;13.69
37452;BMP280;23314;51.114;6.900;2022-11-15T07:12:08;100582.94;;;13.69
37452;BMP280;23314;51.114;6.900;2022-11-15T07:14:34;100593.66;;;13.69
37452;BMP280;23314;51.114;6.900;2022-11-15T07:16:59;100581.09;;;13.66
37452;BMP280;23314;51.114;6.900;2022-11-15T07:19:25;100593.13;;;13.61
37452;BMP280;23314;51.114;6.900;2022-11-15T07:21:50;100600.06;;;13.59
37452;BMP280;23314;51.114;6.900;2022-11-15T07:24:16;100602.47;;;13.57
37452;BMP280;23314;51.114;6.900;2022-11-15T07:26:41;100607.06;;;13.56
37452;BMP280;23314;51.114;6.900;2022-11-15T07:29:06;100598.88;;;13.60
37452;BMP280;23314;51.114;6.900;2022-11-15T07:31:32;100606.41;;;13.65
37452;BMP280;23314;51.114;6.900;2022-11-15T07:33:57;100610.09;;;13.71
37452;BMP280;23314;51.114;6.900;2022-11-15T07:36:23;100617.25;;;13.74
37452;BMP280;23314;51.114;6.900;2022-11-15T07:38:49;100621.66;;;13.81
37452;BMP280;23314;51.114;6.900;2022-11-15T07:41:14;100613.41;;;13.88
37452;BMP280;23314;51.114;6.900;2022-11-15T07:43:39;100617.06;;;13.94
37452;BMP280;23314;51.114;6.900;2022-11-15T07:46:06;100616.44;;;14.03
37452;BMP280;23314;51.114;6.900;2022-11-15T07:48:35;100619.19;;;14.12
37452;BMP280;23314;51.114;6.900;2022-11-15T07:51:00;100623.91;;;14.21
37452;BMP280;23314;51.114;6.900;2022-11-15T07:53:25;100618.34;;;14.28
37452;BMP280;23314;51.114;6.900;2022-11-15T07:55:51;100613.47;;;14.36
37452;BMP280;23314;51.114;6.900;2022-11-15T07:58:18;100613.06;;;14.38
37452;BMP280;23314;51.114;6.900;2022-11-15T08:00:44;100617.03;;;14.33
37452;BMP280;23314;51.114;6.900;2022-11-15T08:03:13;100616.41;;;14.29
37452;BMP280;23314;51.114;6.900;2022-11-15T08:05:40;100617.81;;;14.20
37452;BMP280;23314;51.114;6.900;2022-11-15T08:08:07;100624.56;;;14.12
37452;BMP280;23314;51.114;6.900;2022-11-15T08:10:33;100619.00;;;14.07
37452;BMP280;23314;51.114;6.900;2022-11-15T08:13:06;100624.50;;;14.03
37452;BMP280;23314;51.114;6.900;2022-11-15T08:15:33;100617.28;;;14.00
37452;BMP280;23314;51.114;6.900;2022-11-15T08:18:01;100620.06;;;13.96
37452;BMP280;23314;51.114;6.900;2022-11-15T08:20:28;100618.25;;;13.93
37452;BMP280;23314;51.114;6.900;2022-11-15T08:22:58;100619.13;;;13.90
37452;BMP280;23314;51.114;6.900;2022-11-15T08:25:24;100620.69;;;13.87
37452;BMP280;23314;51.114;6.900;2022-11-15T08:27:56;100619.97;;;13.87
37452;BMP280;23314;51.114;6.900;2022-11-15T08:30:22;100629.56;;;13.84
37452;BMP280;23314;51.114;6.900;2022-11-15T08:32:49;100619.97;;;13.87
37452;BMP280;23314;51.114;6.900;2022-11-15T08:35:15;100616.09;;;13.88
37452;BMP280;23314;51.114;6.900;2022-11-15T08:37:41;100614.47;;;13.91
37452;BMP280;23314;51.114;6.900;2022-11-15T08:40:06;100614.81;;;13.93
37452;BMP280;23314;51.114;6.900;2022-11-15T08:42:32;100614.38;;;13.94
37452;BMP280;23314;51.114;6.900;2022-11-15T08:44:57;100613.50;;;13.97
37452;BMP280;23314;51.114;6.900;2022-11-15T08:47:23;100607.19;;;14.04
37452;BMP280;23314;51.114;6.900;2022-11-15T08:49:49;100607.09;;;14.08
37452;BMP280;23314;51.114;6.900;2022-11-15T08:52:14;100598.06;;;14.14
37452;BMP280;23314;51.114;6.900;2022-11-15T08:54:39;100593.34;;;14.18
37452;BMP280;23314;51.114;6.900;2022-11-15T08:57:05;100592.78;;;14.24
37452;BMP280;23314;51.114;6.900;2022-11-15T08:59:31;100583.91;;;14.27
37452;BMP280;23314;51.114;6.900;2022-11-15T09:01:56;100578.41;;;14.30
37452;BMP280;23314;51.114;6.900;2022-11-15T09:04:21;100572.19;;;14.33
37452;BMP280;23314;51.114;6.900;2022-11-15T09:06:47;100583.22;;;14.35
37452;BMP280;23314;51.114;6.900;2022-11-15T09:09:12;100578.19;;;14.38
37452;BMP280;23314;51.114;6.900;2022-11-15T09:11:37;100570.00;;;14.41
37452;BMP280;23314;51.114;6.900;2022-11-15T09:14:03;100580.69;;;14.54
37452;BMP280;23314;51.114;6.900;2022-11-15T09:16:30;100575.66;;;14.56
37452;BMP280;23314;51.114;6.900;2022-11-15T09:18:55;100578.66;;;14.58
37452;BMP280;23314;51.114;6.900;2022-11-15T09:21:21;100574.34;;;14.61
37452;BMP280;23314;51.114;6.900;2022-11-15T09:23:46;100581.13;;;14.65
37452;BMP280;23314;51.114;6.900;2022-11-15T09:26:12;100584.41;;;14.69
37452;BMP280;23314;51.114;6.900;2022-11-15T09:28:38;100576.97;;;14.74
37452;BMP280;23314;51.114;6.900;2022-11-15T09:31:07;100580.28;;;14.78
37452;BMP280;23314;51.114;6.900;2022-11-15T09:33:32;100577.81;;;14.83
37452;BMP280;23314;51.114;6.900;2022-11-15T09:36:04;100575.59;;;14.91
37452;BMP280;23314;51.114;6.900;2022-11-15T09:38:30;100567.56;;;14.91
37452;BMP280;23314;51.114;6.900;2022-11-15T09:43:58;100560.44;;;14.97
37452;BMP280;23314;51.114;6.900;2022-11-15T09:49:17;100548.69;;;15.04
37452;BMP280;23314;51.114;6.900;2022-11-15T09:51:48;100548.25;;;15.06
37452;BMP280;23314;51.114;6.900;2022-11-15T09:54:32;100541.38;;;15.05
37452;BMP280;23314;51.114;6.900;2022-11-15T09:57:18;100540.06;;;15.09
37452;BMP280;23314;51.114;6.900;2022-11-15T09:59:59;100532.75;;;15.10
37452;BMP280;23314;51.114;6.900;2022-11-15T10:02:55;100529.31;;;15.09
37452;BMP280;23314;51.114;6.900;2022-11-15T10:05:23;100520.84;;;15.11
37452;BMP280;23314;51.114;6.900;2022-11-15T10:08:01;100518.56;;;15.09
37452;BMP280;23314;51.114;6.900;2022-11-15T10:13:36;100502.34;;;15.13
37452;BMP280;23314;51.114;6.900;2022-11-15T10:24:24;100484.34;;;15.32
37452;BMP280;23314;51.114;6.900;2022-11-15T10:26:50;100481.53;;;15.35
37452;BMP280;23314;51.114;6.900;2022-11-15T10:29:19;100481.38;;;15.39
37452;BMP280;23314;51.114;6.900;2022-11-15T10:31:45;100490.78;;;15.44
37452;BMP280;23314;51.114;6.900;2022-11-15T10:34:22;100483.50;;;15.44
37452;BMP280;23314;51.114;6.900;2022-11-15T10:36:58;100475.13;;;15.42
37452;BMP280;23314;51.114;6.900;2022-11-15T10:39:25;100477.66;;;15.46
37452;BMP280;23314;51.114;6.900;2022-11-15T10:41:51;100464.84;;;15.50
37452;BMP280;23314;51.114;6.900;2022-11-15T10:46:43;100476.63;;;15.52
37452;BMP280;23314;51.114;6.900;2022-11-15T10:49:18;100468.56;;;15.52
37452;BMP280;23314;51.114;6.900;2022-11-15T10:51:49;100456.94;;;15.56
37452;BMP280;23314;51.114;6.900;2022-11-15T10:54:27;100460.09;;;15.54
37452;BMP280;23314;51.114;6.900;2022-11-15T10:56:55;100447.53;;;15.60
37452;BMP280;23314;51.114;6.900;2022-11-15T10:59:30;100447.28;;;15.77
37452;BMP280;23314;51.114;6.900;2022-11-15T11:01:57;100442.31;;;15.75
37452;BMP280;23314;51.114;6.900;2022-11-15T11:04:22;100438.91;;;15.75
37452;BMP280;23314;51.114;6.900;2022-11-15T11:06:52;100443.06;;;15.94
37452;BMP280;23314;51.114;6.900;2022-11-15T11:11:59;100438.78;;;15.97
37452;BMP280;23314;51.114;6.900;2022-11-15T11:14:27;100439.78;;;15.99
37452;BMP280;23314;51.114;6.900;2022-11-15T11:19:51;100431.13;;;15.95
37452;BMP280;23314;51.114;6.900;2022-11-15T11:25:33;100426.34;;;15.99
37452;BMP280;23314;51.114;6.900;2022-11-15T11:30:39;100419.00;;;16.00
37452;BMP280;23314;51.114;6.900;2022-11-15T11:33:19;100416.31;;;16.00
37452;BMP280;23314;51.114;6.900;2022-11-15T11:36:03;100421.28;;;16.01
37452;BMP280;23314;51.114;6.900;2022-11-15T11:38:49;100418.44;;;16.05
37452;BMP280;23314;51.114;6.900;2022-11-15T11:44:24;100402.72;;;16.13
37452;BMP280;23314;51.114;6.900;2022-11-15T11:47:00;100402.72;;;16.13
37452;BMP280;23314;51.114;6.900;2022-11-15T11:49:46;100401.69;;;16.10
37452;BMP280;23314;51.114;6.900;2022-11-15T11:52:33;100404.06;;;16.08
37452;BMP280;23314;51.114;6.900;2022-11-15T11:57:47;100392.72;;;16.13
37452;BMP280;23314;51.114;6.900;2022-11-15T12:00:20;100403.63;;;16.19
37452;BMP280;23314;51.114;6.900;2022-11-15T12:02:59;100405.56;;;16.18
37452;BMP280;23314;51.114;6.900;2022-11-15T12:07:54;100392.56;;;16.26
37452;BMP280;23314;51.114;6.900;2022-11-15T12:10:28;100385.22;;;16.27
37452;BMP280;23314;51.114;6.900;2022-11-15T12:13:16;100373.41;;;16.24
37452;BMP280;23314;51.114;6.900;2022-11-15T12:15:57;100369.06;;;16.27
37452;BMP280;23314;51.114;6.900;2022-11-15T12:18:24;100357.38;;;16.30
37452;BMP280;23314;51.114;6.900;2022-11-15T12:21:21;100354.25;;;16.31
37452;BMP280;23314;51.114;6.900;2022-11-15T12:23:54;100353.06;;;16.32
37452;BMP280;23314;51.114;6.900;2022-11-15T12:26:26;100346.63;;;16.30
37452;BMP280;23314;51.114;6.900;2022-11-15T12:28:59;100352.78;;;16.30
37452;BMP280;23314;51.114;6.900;2022-11-15T12:31:36;100337.34;;;16.31
37452;BMP280;23314;51.114;6.900;2022-11-15T12:36:54;100339.69;;;16.47
37452;BMP280;23314;51.114;6.900;2022-11-15T12:39:20;100326.19;;;16.57
37452;BMP280;23314;51.114;6.900;2022-11-15T13:02:43;100277.75;;;17.20
37452;BMP280;23314;51.114;6.900;2022-11-15T13:17:56;100256.59;;;17.28
37452;BMP280;23314;51.114;6.900;2022-11-15T13:20:29;100255.19;;;17.32
37452;BMP280;23314;51.114;6.900;2022-11-15T13:28:24;100246.91;;;17.81
37452;BMP280;23314;51.114;6.900;2022-11-15T13:33:20;100240.94;;;17.92
37452;BMP280;23314;51.114;6.900;2022-11-15T13:35:52;100227.06;;;17.99
37452;BMP280;23314;51.114;6.900;2022-11-15T13:38:31;100224.72;;;18.06
37452;BMP280;23314;51.114;6.900;2022-11-15T13:40:58;100223.69;;;18.19
37452;BMP280;23314;51.114;6.900;2022-11-15T13:43:31;100226.25;;;18.28
37452;BMP280;23314;51.114;6.900;2022-11-15T13:46:32;100220.19;;;18.33
37452;BMP280;23314;51.114;6.900;2022-11-15T13:49:08;100220.72;;;18.37
37452;BMP280;23314;51.114;6.900;2022-11-15T13:51:40;100208.91;;;18.35
37452;BMP280;23314;51.114;6.900;2022-11-15T13:54:27;100208.91;;;18.35
37452;BMP280;23314;51.114;6.900;2022-11-15T13:57:00;100205.66;;;18.31
37452;BMP280;23314;51.114;6.900;2022-11-15T13:59:29;100203.91;;;18.28
37452;BMP280;23314;51.114;6.900;2022-11-15T14:01:59;100203.84;;;18.22
37452;BMP280;23314;51.114;6.900;2022-11-15T14:04:27;100200.09;;;18.19
37452;BMP280;23314;51.114;6.900;2022-11-15T14:06:59;100190.25;;;18.16
37452;BMP280;23314;51.114;6.900;2022-11-15T14:09:38;100180.59;;;18.10
37452;BMP280;23314;51.114;6.900;2022-11-15T14:14:47;100176.06;;;18.01
37452;BMP280;23314;51.114;6.900;2022-11-15T14:17:34;100167.13;;;17.95
37452;BMP280;23314;51.114;6.900;2022-11-15T14:20:00;100167.34;;;17.91
37452;BMP280;23314;51.114;6.900;2022-11-15T14:22:29;100165.78;;;17.84
37452;BMP280;23314;51.114;6.900;2022-11-15T14:25:14;100158.34;;;17.79
37452;BMP280;23314;51.114;6.900;2022-11-15T14:27:41;100143.31;;;17.72
37452;BMP280;23314;51.114;6.900;2022-11-15T14:30:14;100147.59;;;17.64
37452;BMP280;23314;51.114;6.900;2022-11-15T14:32:47;100138.69;;;17.58
37452;BMP280;23314;51.114;6.900;2022-11-15T14:35:19;100135.34;;;17.48
37452;BMP280;23314;51.114;6.900;2022-11-15T14:37:45;100133.78;;;17.42
37452;BMP280;23314;51.114;6.900;2022-11-15T14:40:18;100132.22;;;17.35
37452;BMP280;23314;51.114;6.900;2022-11-15T14:42:45;100125.50;;;17.30
37452;BMP280;23314;51.114;6.900;2022-11-15T14:45:14;100124.97;;;17.26
37452;BMP280;23314;51.114;6.900;2022-11-15T14:47:40;100119.75;;;17.23
37452;BMP280;23314;51.114;6.900;2022-11-15T14:50:05;100122.94;;;17.21
37452;BMP280;23314;51.114;6.900;2022-11-15T14:52:32;100114.84;;;17.21
37452;BMP280;23314;51.114;6.900;2022-11-15T14:55:03;100110.66;;;17.20
37452;BMP280;23314;51.114;6.900;2022-11-15T14:57:29;100110.34;;;17.18
37452;BMP280;23314;51.114;6.900;2022-11-15T14:59:55;100106.38;;;17.13
37452;BMP280;23314;51.114;6.900;2022-11-15T15:02:24;100096.84;;;17.12
37452;BMP280;23314;51.114;6.900;2022-11-15T15:04:50;100094.19;;;17.03
37452;BMP280;23314;51.114;6.900;2022-11-15T15:07:16;100092.91;;;16.98
37452;BMP280;23314;51.114;6.900;2022-11-15T15:09:42;100087.69;;;16.95
37452;BMP280;23314;51.114;6.900;2022-11-15T15:12:18;100081.50;;;16.88
37452;BMP280;23314;51.114;6.900;2022-11-15T15:14:45;100080.16;;;16.84
37452;BMP280;23314;51.114;6.900;2022-11-15T15:17:10;100068.66;;;16.83
37452;BMP280;23314;51.114;6.900;2022-11-15T15:19:36;100059.59;;;16.81
37452;BMP280;23314;51.114;6.900;2022-11-15T15:22:01;100058.25;;;16.76
37452;BMP280;23314;51.114;6.900;2022-11-15T15:24:26;100057.97;;;16.74
37452;BMP280;23314;51.114;6.900;2022-11-15T15:26:52;100055.28;;;16.74
37452;BMP280;23314;51.114;6.900;2022-11-15T15:29:17;100050.66;;;16.75
37452;BMP280;23314;51.114;6.900;2022-11-15T15:31:42;100039.31;;;16.70
37452;BMP280;23314;51.114;6.900;2022-11-15T15:34:08;100038.94;;;16.63
37452;BMP280;23314;51.114;6.900;2022-11-15T15:36:33;100037.88;;;16.60
37452;BMP280;23314;51.114;6.900;2022-11-15T15:38:58;100037.34;;;16.56
37452;BMP280;23314;51.114;6.900;2022-11-15T15:41:24;100034.53;;;16.50
37452;BMP280;23314;51.114;6.900;2022-11-15T15:43:49;100033.81;;;16.50
37452;BMP280;23314;51.114;6.900;2022-11-15T15:46:17;100032.06;;;16.47
37452;BMP280;23314;51.114;6.900;2022-11-15T15:48:43;100035.22;;;16.45
37452;BMP280;23314;51.114;6.900;2022-11-15T15:51:08;100030.00;;;16.42
37452;BMP280;23314;51.114;6.900;2022-11-15T15:53:34;100033.16;;;16.40
37452;BMP280;23314;51.114;6.900;2022-11-15T15:55:59;100032.88;;;16.38
37452;BMP280;23314;51.114;6.900;2022-11-15T15:58:24;100032.41;;;16.40